Portada
METAR-TAF:

METAR-TAF

Aeroports :

Parsons, Tennessee, Estats Units d'Amèrica

latitud: 35-39-23N, longitud: 088-11-43W, altitud: 149 m

Observació

L'informe es va fer fa 33 minuts, a les 12:35 UTC
Vent calma
Temperatura 5°C
Humitat 93%
Pressió 1009 hPa
Visibilitat: 16.1 km
Cel clar

METAR: KPVE 191235Z AUTO 00000KT 10SM CLR 05/04 A2980 RMK A01

Hora: 07:08 (13:08 UTC)


TAF: manca

Observacions i pronòstics meteorològics de més de 4000 aeroports (METAR i TAF).

Les estacions disponibles són els punts grocs i vermells al mapa.

Posi el ratolí al punt desitjat per veure el nom de l'estació.

Feu clic per veure les observacions i els pronòstics meteorològics.

Per canviar el mapa: feu clic els botons verds amb una creu de color negre per apropar; al botó verd amb un guió per allunyar la imatge; o en les fletxes verdes per a mapes adjacents.


METAR-TAF: